Time;durP1;ratioP1;P1;durP2;ratioP2;P2;SDS_P1;SDS_P2;PMS_P1;PMS_P2;Temp;Humidity;BMP_temperature;BMP_pressure;BME280_temperature;BME280_humidity;BME280_pressure;Samples;Min_cycle;Max_cycle;Signal;HPM_P1;HPM_P2
2021/05/18 00:00:22;;;;;;;8.70;8.40;;;24.30;71.80;;;;;;3567567;40;20236;-52
2021/05/18 00:02:50;;;;;;;9.10;8.70;;;24.30;71.90;;;;;;3569151;40;20603;-51
2021/05/18 00:05:20;;;;;;;9.00;8.70;;;24.30;71.90;;;;;;3567785;40;20233;-52
2021/05/18 00:07:54;;;;;;;9.50;9.13;;;24.30;71.80;;;;;;3567996;40;20481;-50
2021/05/18 00:13:08;;;;;;;9.10;8.80;;;24.30;71.80;;;;;;3567767;40;20555;-50
2021/05/18 00:15:36;;;;;;;9.10;8.80;;;24.30;71.80;;;;;;3567854;40;20512;-50
2021/05/18 00:18:03;;;;;;;9.23;8.77;;;24.30;71.80;;;;;;3568034;40;20501;-50
2021/05/18 00:20:32;;;;;;;9.00;8.70;;;24.30;71.80;;;;;;3568083;40;20481;-50
2021/05/18 00:22:59;;;;;;;9.17;8.77;;;24.30;71.80;;;;;;3558266;40;20472;-51
2021/05/18 00:25:27;;;;;;;9.33;9.03;;;24.30;71.90;;;;;;3567472;40;20484;-51
2021/05/18 00:28:12;;;;;;;9.30;9.00;;;24.30;71.90;;;;;;3567235;40;20702;-50
2021/05/18 00:30:40;;;;;;;8.60;8.30;;;24.30;71.90;;;;;;3567111;40;20484;-54
2021/05/18 00:33:13;;;;;;;8.90;8.60;;;24.30;71.90;;;;;;3568475;40;20809;-50
2021/05/18 00:35:42;;;;;;;9.43;9.03;;;24.20;71.80;;;;;;3567978;40;20901;-50
2021/05/18 00:38:09;;;;;;;9.33;9.03;;;24.30;71.90;;;;;;3567443;40;20489;-49
2021/05/18 00:43:05;;;;;;;9.00;8.70;;;24.20;71.80;;;;;;3566410;40;20479;-50
2021/05/18 00:45:35;;;;;;;9.02;8.73;;;24.20;71.80;;;;;;3566623;40;20503;-51
2021/05/18 00:48:06;;;;;;;9.37;8.90;;;24.20;71.80;;;;;;3567525;40;20220;-50
2021/05/18 00:50:36;;;;;;;8.90;8.60;;;24.20;71.90;;;;;;3558756;40;20488;-50
2021/05/18 00:53:05;;;;;;;9.13;8.80;;;24.20;71.80;;;;;;3567393;40;20486;-50
2021/05/18 00:55:41;;;;;;;9.13;8.73;;;24.20;71.80;;;;;;3567141;40;20485;-50
2021/05/18 00:58:29;;;;;;;9.00;8.70;;;24.20;71.80;;;;;;3565972;40;20579;-51
2021/05/18 01:01:01;;;;;;;8.80;8.50;;;24.20;71.70;;;;;;3567333;40;20500;-49
2021/05/18 01:03:29;;;;;;;9.20;8.80;;;24.20;71.80;;;;;;3567033;40;20560;-50
2021/05/18 01:08:42;;;;;;;8.60;8.40;;;24.20;71.80;;;;;;3568303;40;20221;-49
2021/05/18 01:11:11;;;;;;;9.30;9.00;;;24.20;71.70;;;;;;3567885;40;20542;-49
2021/05/18 01:13:38;;;;;;;9.50;9.10;;;24.20;71.70;;;;;;3567178;40;20483;-49
2021/05/18 01:16:09;;;;;;;9.63;9.17;;;24.20;71.70;;;;;;3566933;40;20501;-49
2021/05/18 01:18:38;;;;;;;9.40;9.10;;;24.20;71.70;;;;;;3567431;40;20486;-51
2021/05/18 01:21:06;;;;;;;9.27;8.95;;;24.20;71.60;;;;;;3567179;40;20487;-50
2021/05/18 01:23:35;;;;;;;9.00;8.70;;;24.30;71.80;;;;;;3568234;40;20568;-50
2021/05/18 01:26:04;;;;;;;9.80;9.40;;;24.20;71.70;;;;;;3567924;40;20470;-49
2021/05/18 01:28:31;;;;;;;9.27;8.97;;;24.20;71.60;;;;;;3558592;40;20496;-50
2021/05/18 01:31:00;;;;;;;9.60;9.30;;;24.20;71.60;;;;;;3564719;40;20514;-51
2021/05/18 01:33:31;;;;;;;9.73;9.33;;;24.30;71.70;;;;;;3548321;40;20564;-51
2021/05/18 01:36:01;;;;;;;9.40;9.10;;;24.30;71.70;;;;;;3549080;40;20489;-50
2021/05/18 01:38:35;;;;;;;9.80;9.40;;;24.20;71.60;;;;;;3556874;40;20830;-50
2021/05/18 01:43:51;;;;;;;9.07;8.77;;;24.20;71.60;;;;;;3547164;40;21008;-50
2021/05/18 01:46:21;;;;;;;10.37;9.60;;;24.30;71.70;;;;;;3538043;40;20241;-52
2021/05/18 01:48:53;;;;;;;9.10;8.80;;;24.30;71.70;;;;;;3547467;40;20519;-50
2021/05/18 01:51:21;;;;;;;8.90;8.60;;;24.30;71.70;;;;;;3547479;40;21048;-50
2021/05/18 01:53:48;;;;;;;9.17;8.87;;;24.30;71.60;;;;;;3546599;40;20554;-54
2021/05/18 01:56:30;;;;;;;9.20;8.90;;;24.30;71.60;;;;;;3536269;40;20614;-51
2021/05/18 01:59:03;;;;;;;9.43;9.13;;;24.30;71.60;;;;;;3545328;40;20487;-51
2021/05/18 02:01:38;;;;;;;9.13;8.80;;;24.30;71.50;;;;;;3546241;40;20825;-51
2021/05/18 02:04:07;;;;;;;9.35;9.05;;;24.30;71.60;;;;;;3547567;40;20492;-50
2021/05/18 02:06:36;;;;;;;9.57;9.07;;;24.30;71.60;;;;;;3547792;40;20236;-50
2021/05/18 02:09:12;;;;;;;9.30;9.00;;;24.30;71.50;;;;;;3547548;40;20490;-50
2021/05/18 02:11:44;;;;;;;9.30;9.00;;;24.30;71.50;;;;;;3546441;40;20833;-50
2021/05/18 02:14:19;;;;;;;9.50;9.20;;;24.30;71.40;;;;;;3546368;40;20483;-51
2021/05/18 02:16:49;;;;;;;9.00;8.70;;;24.30;71.40;;;;;;3545230;40;20564;-50
2021/05/18 02:19:33;;;;;;;9.27;9.07;;;24.30;71.30;;;;;;3546041;40;20561;-50
2021/05/18 02:22:19;;;;;;;9.17;8.97;;;24.30;71.30;;;;;;3549929;40;20259;-50
2021/05/18 02:25:00;;;;;;;8.90;8.63;;;24.40;71.40;;;;;;3556376;40;20866;-50
2021/05/18 02:27:43;;;;;;;8.87;8.57;;;24.40;71.40;;;;;;3556264;40;20483;-50
2021/05/18 02:30:14;;;;;;;8.63;8.40;;;24.40;71.40;;;;;;3556709;40;20487;-51
2021/05/18 02:32:46;;;;;;;8.87;8.57;;;24.40;71.40;;;;;;3556137;40;20482;-50
2021/05/18 02:35:32;;;;;;;9.20;8.50;;;24.40;71.40;;;;;;3555041;40;20500;-50
2021/05/18 02:38:00;;;;;;;8.57;8.37;;;24.40;71.40;;;;;;3557311;40;21089;-50
2021/05/18 02:40:31;;;;;;;8.83;8.50;;;24.40;71.40;;;;;;3556056;40;20483;-51
2021/05/18 02:42:59;;;;;;;8.57;8.30;;;24.40;71.30;;;;;;3556564;40;20486;-50
2021/05/18 02:45:33;;;;;;;8.53;8.23;;;24.40;71.30;;;;;;3556330;40;20720;-50
2021/05/18 02:50:49;;;;;;;9.43;9.13;;;24.40;71.20;;;;;;3548502;40;21177;-49
2021/05/18 02:53:22;;;;;;;9.50;9.20;;;24.40;71.20;;;;;;3556303;40;20228;-51
2021/05/18 02:55:57;;;;;;;9.17;8.87;;;24.40;71.20;;;;;;3548445;40;20490;-50
2021/05/18 02:58:25;;;;;;;9.13;8.93;;;24.40;71.10;;;;;;3557432;40;20563;-50
2021/05/18 03:00:52;;;;;;;8.90;8.60;;;24.40;71.10;;;;;;3556717;40;20604;-50
2021/05/18 03:03:19;;;;;;;9.33;9.03;;;24.50;71.20;;;;;;3567849;40;20483;-50
2021/05/18 03:05:47;;;;;;;9.07;8.87;;;24.40;71.00;;;;;;3567458;40;20490;-51
2021/05/18 03:08:14;;;;;;;9.30;9.00;;;24.50;71.20;;;;;;3567632;40;20486;-50
2021/05/18 03:10:41;;;;;;;9.80;9.40;;;24.50;71.10;;;;;;3567546;40;20542;-50
2021/05/18 03:13:10;;;;;;;9.48;9.18;;;24.50;71.10;;;;;;3567844;40;20495;-50
2021/05/18 03:15:37;;;;;;;9.30;9.00;;;24.50;71.10;;;;;;3567515;40;20268;-53
2021/05/18 03:18:05;;;;;;;9.50;9.30;;;24.50;71.20;;;;;;3567973;40;20545;-51
2021/05/18 03:20:32;;;;;;;9.90;9.50;;;24.50;71.00;;;;;;3568212;40;20568;-50
2021/05/18 03:23:01;;;;;;;9.40;9.10;;;24.50;71.00;;;;;;3568454;40;20470;-50
2021/05/18 03:25:28;;;;;;;9.50;9.20;;;24.50;71.00;;;;;;3568760;40;20513;-50
2021/05/18 03:27:59;;;;;;;9.40;9.10;;;24.50;71.00;;;;;;3567526;40;20519;-50
2021/05/18 03:30:43;;;;;;;9.90;9.60;;;24.50;71.70;;;;;;3568075;40;20490;-51
2021/05/18 03:35:59;;;;;;;10.93;10.60;;;24.50;70.90;;;;;;3566390;40;20492;-51
2021/05/18 03:38:32;;;;;;;11.23;10.82;;;24.50;70.80;;;;;;3566310;40;20905;-51
2021/05/18 03:41:02;;;;;;;10.37;10.07;;;24.50;70.90;;;;;;3558335;40;20755;-51
2021/05/18 03:43:42;;;;;;;11.10;10.60;;;24.50;70.90;;;;;;3567080;40;20554;-50
2021/05/18 03:52:17;;;;;;;10.40;10.10;;;24.60;71.00;;;;;;3567150;40;20840;-49
2021/05/18 03:54:44;;;;;;;10.50;10.20;;;24.60;70.90;;;;;;3566677;40;20492;-51
2021/05/18 04:02:52;;;;;;;11.13;10.83;;;24.60;70.70;;;;;;3557718;40;20465;-50
2021/05/18 04:11:04;;;;;;;11.80;11.40;;;24.70;70.80;;;;;;3556135;40;20373;-51
2021/05/18 04:19:04;;;;;;;12.13;11.73;;;24.70;70.60;;;;;;3555560;40;20499;-50
2021/05/18 04:21:44;;;;;;;11.40;11.10;;;24.70;70.60;;;;;;3557510;40;20494;-51
2021/05/18 04:41:05;;;;;;;12.50;12.10;;;24.80;70.60;;;;;;3564280;40;20560;-49
2021/05/18 04:51:46;;;;;;;11.93;11.53;;;24.80;70.40;;;;;;3563614;40;21168;-49
2021/05/18 04:54:44;;;;;;;12.17;11.77;;;24.80;70.40;;;;;;3560938;40;20493;-49
2021/05/18 04:59:54;;;;;;;11.67;11.37;;;24.90;70.50;;;;;;3562082;40;20583;-53
2021/05/18 05:07:59;;;;;;;11.80;11.50;;;24.90;70.40;;;;;;3551667;40;20479;-51
2021/05/18 05:12:19;;;;;;;12.27;11.87;;;24.90;70.30;;;;;;3562507;40;20514;-49
2021/05/18 05:16:02;;;;;;;12.40;12.00;;;24.90;70.30;;;;;;3561245;40;20243;-49
2021/05/18 05:18:30;;;;;;;12.50;12.10;;;24.90;70.30;;;;;;3562817;40;20475;-49
2021/05/18 05:20:56;;;;;;;12.73;12.30;;;24.90;70.30;;;;;;3561157;40;20489;-53
2021/05/18 05:23:24;;;;;;;12.13;11.63;;;24.90;70.30;;;;;;3558957;40;20651;-49
2021/05/18 05:25:51;;;;;;;11.83;11.53;;;24.90;70.30;;;;;;3556218;40;20534;-52
2021/05/18 05:28:18;;;;;;;11.98;11.50;;;24.90;70.30;;;;;;3558662;40;20523;-50
2021/05/18 05:30:45;;;;;;;12.10;11.77;;;24.90;70.30;;;;;;3556885;40;20235;-51
2021/05/18 05:33:14;;;;;;;11.83;11.43;;;24.90;70.30;;;;;;3558212;40;20497;-51
2021/05/18 05:35:43;;;;;;;12.23;11.80;;;24.90;70.30;;;;;;3556154;40;20483;-51
2021/05/18 05:38:11;;;;;;;12.37;11.97;;;24.90;70.20;;;;;;3556842;40;20477;-51
2021/05/18 05:40:38;;;;;;;12.13;11.73;;;24.90;70.20;;;;;;3556741;40;20550;-51
2021/05/18 05:43:06;;;;;;;12.23;11.83;;;24.90;70.20;;;;;;3554620;40;20599;-51
2021/05/18 05:45:33;;;;;;;11.13;10.80;;;24.90;70.30;;;;;;3544389;40;20563;-50
2021/05/18 05:48:01;;;;;;;11.20;10.90;;;24.90;70.20;;;;;;3555157;40;20483;-52
2021/05/18 05:50:28;;;;;;;11.30;10.90;;;24.90;70.30;;;;;;3556635;40;20592;-50
2021/05/18 05:52:56;;;;;;;11.17;10.87;;;24.90;70.30;;;;;;3554904;40;20580;-51
2021/05/18 05:55:23;;;;;;;11.20;10.90;;;24.90;70.30;;;;;;3551280;40;20491;-49
2021/05/18 05:57:52;;;;;;;11.33;10.60;;;24.80;70.20;;;;;;3553799;40;20383;-50
2021/05/18 06:00:20;;;;;;;11.20;10.80;;;24.90;70.40;;;;;;3551670;40;20491;-51
2021/05/18 06:02:47;;;;;;;10.90;10.50;;;24.90;70.40;;;;;;3540589;40;20489;-51
2021/05/18 06:05:14;;;;;;;12.27;11.47;;;24.90;70.50;;;;;;3549368;40;20514;-51
2021/05/18 06:07:41;;;;;;;11.60;10.93;;;24.90;70.50;;;;;;3546498;40;20501;-50
2021/05/18 06:10:12;;;;;;;11.80;11.27;;;24.90;70.60;;;;;;3550776;40;20600;-51
2021/05/18 06:12:50;;;;;;;12.53;11.53;;;24.90;70.60;;;;;;3545522;40;20497;-50
2021/05/18 06:15:40;;;;;;;12.83;11.83;;;24.90;70.60;;;;;;3540354;40;20505;-50
2021/05/18 06:35:12;;;;;;;12.37;11.33;;;25.00;70.70;;;;;;3550946;40;20570;-52
2021/05/18 06:41:05;;;;;;;11.07;10.53;;;25.00;70.70;;;;;;3551407;40;20486;-52
2021/05/18 06:43:24;;;;;;;11.33;10.83;;;25.00;71.30;;;;;;3547708;40;20513;-52
2021/05/18 06:48:39;;;;;;;11.60;11.00;;;25.00;70.50;;;;;;3550075;40;20487;-51
2021/05/18 06:51:07;;;;;;;11.73;11.10;;;25.00;70.50;;;;;;3549137;40;20474;-53
2021/05/18 06:53:35;;;;;;;11.10;10.67;;;25.00;70.40;;;;;;3550609;40;20494;-50
2021/05/18 06:56:03;;;;;;;10.60;10.20;;;25.00;70.40;;;;;;3541942;40;20494;-55
2021/05/18 07:00:08;;;;;;;10.13;9.73;;;24.90;70.20;;;;;;3538742;40;21030;-52
2021/05/18 07:01:33;;;;;;;12.30;11.60;;;24.90;70.20;;;;;;3539681;40;20481;-55
2021/05/18 07:04:04;;;;;;;10.23;9.73;;;24.90;70.10;;;;;;3548458;40;20938;-53
2021/05/18 07:06:48;;;;;;;11.82;11.25;;;24.90;70.10;;;;;;3537331;40;20496;-55
2021/05/18 07:09:16;;;;;;;10.80;10.40;;;25.00;70.20;;;;;;3538960;40;20238;-54
2021/05/18 07:11:43;;;;;;;10.50;10.10;;;24.90;70.10;;;;;;3539291;40;20504;-55
2021/05/18 07:14:11;;;;;;;10.80;10.20;;;25.00;70.30;;;;;;3540825;40;20491;-54
2021/05/18 07:16:38;;;;;;;10.80;10.30;;;24.90;70.30;;;;;;3537174;40;20482;-51
2021/05/18 07:19:07;;;;;;;10.20;9.80;;;24.90;70.30;;;;;;3537011;40;20480;-54
2021/05/18 07:21:33;;;;;;;10.70;10.18;;;24.90;70.30;;;;;;3538594;40;20488;-54
2021/05/18 07:24:01;;;;;;;11.27;10.63;;;24.90;70.30;;;;;;3538691;40;20219;-55
2021/05/18 07:26:29;;;;;;;10.80;10.40;;;24.90;70.30;;;;;;3539739;40;20506;-55
2021/05/18 07:28:57;;;;;;;11.10;10.47;;;24.90;70.40;;;;;;3537933;40;20823;-54
2021/05/18 07:31:24;;;;;;;11.47;10.93;;;24.90;70.30;;;;;;3539594;40;20487;-52
2021/05/18 07:33:52;;;;;;;10.30;9.97;;;24.90;70.30;;;;;;3539296;40;20496;-55
2021/05/18 07:36:20;;;;;;;10.60;10.20;;;24.90;70.40;;;;;;3540824;40;20487;-53
2021/05/18 07:38:53;;;;;;;10.13;9.73;;;24.90;70.40;;;;;;3538485;40;20578;-55
2021/05/18 07:41:19;;;;;;;9.90;9.50;;;24.90;70.40;;;;;;3541268;40;20529;-51
2021/05/18 07:43:46;;;;;;;10.73;10.00;;;24.90;70.40;;;;;;3538471;40;20589;-54
2021/05/18 07:46:17;;;;;;;10.63;9.93;;;24.90;70.50;;;;;;3538228;40;20672;-54
2021/05/18 07:49:07;;;;;;;10.50;10.10;;;24.90;70.60;;;;;;3539007;40;21120;-51
2021/05/18 07:51:53;;;;;;;9.93;9.53;;;24.90;70.50;;;;;;3528473;40;20552;-55
2021/05/18 07:59:53;;;;;;;10.10;9.70;;;24.90;70.60;;;;;;3530148;40;20503;-52
2021/05/18 08:02:30;;;;;;;10.37;9.77;;;24.90;70.60;;;;;;3538612;40;20544;-51
2021/05/18 08:07:59;;;;;;;10.97;10.47;;;24.90;70.80;;;;;;3546657;40;20517;-54
2021/05/18 08:10:34;;;;;;;11.20;10.50;;;24.90;70.90;;;;;;3547949;40;20483;-52
2021/05/18 08:13:01;;;;;;;10.90;10.40;;;24.90;71.10;;;;;;3547013;40;20539;-51
2021/05/18 08:15:42;;;;;;;11.37;10.67;;;24.90;71.20;;;;;;3543891;40;21277;-54
2021/05/18 08:18:26;;;;;;;10.83;10.33;;;24.90;71.30;;;;;;3542377;40;20494;-53
2021/05/18 08:21:21;;;;;;;10.50;10.00;;;24.90;71.40;;;;;;3542708;40;20880;-53
2021/05/18 10:34:45;;;;;;;11.47;10.57;;;24.70;73.90;;;;;;3546565;40;20512;-50
2021/05/18 10:37:23;;;;;;;11.63;11.03;;;24.70;73.90;;;;;;3537536;40;20505;-50
2021/05/18 10:40:26;;;;;;;12.50;11.90;;;24.70;73.80;;;;;;3548823;40;20876;-50
2021/05/18 10:43:23;;;;;;;11.40;10.80;;;24.70;73.90;;;;;;3541964;40;20582;-50
2021/05/18 10:46:06;;;;;;;12.60;11.80;;;24.70;73.90;;;;;;3547921;40;20513;-50
2021/05/18 10:48:57;;;;;;;11.90;11.20;;;24.70;73.90;;;;;;3546700;40;20900;-50
2021/05/18 10:51:33;;;;;;;12.03;11.43;;;24.70;74.00;;;;;;3546459;40;20502;-50
2021/05/18 10:54:20;;;;;;;11.77;11.17;;;24.70;74.00;;;;;;3541523;40;20494;-51
2021/05/18 10:57:11;;;;;;;11.93;11.33;;;24.70;74.00;;;;;;3547643;40;20494;-53
2021/05/18 10:59:41;;;;;;;11.73;10.83;;;24.70;74.10;;;;;;3545796;40;20561;-50
2021/05/18 11:02:12;;;;;;;11.80;11.10;;;24.70;74.10;;;;;;3543596;40;20498;-54
2021/05/18 11:04:41;;;;;;;12.10;11.40;;;24.70;74.20;;;;;;3547365;40;21028;-50
2021/05/18 11:07:11;;;;;;;11.20;10.70;;;24.70;74.30;;;;;;3545363;40;20480;-53
2021/05/18 11:09:39;;;;;;;11.40;10.90;;;24.70;74.30;;;;;;3547595;40;21057;-50
2021/05/18 11:12:10;;;;;;;12.03;11.20;;;24.70;74.40;;;;;;3544230;40;20945;-49
2021/05/18 11:14:45;;;;;;;12.70;11.87;;;24.70;74.40;;;;;;3548824;40;20528;-49
2021/05/18 11:17:15;;;;;;;11.60;11.10;;;24.70;74.40;;;;;;3548724;40;21158;-50
2021/05/18 11:20:03;;;;;;;11.63;11.10;;;24.70;74.40;;;;;;3549842;40;21291;-52
2021/05/18 11:25:35;;;;;;;12.40;11.20;;;24.70;74.40;;;;;;3546402;40;20480;-50
2021/05/18 11:28:08;;;;;;;12.10;11.37;;;24.60;74.30;;;;;;3549409;40;20504;-52
2021/05/18 11:30:37;;;;;;;12.17;11.47;;;24.60;74.30;;;;;;3540909;40;20609;-50
2021/05/18 11:33:05;;;;;;;12.13;11.32;;;24.60;74.40;;;;;;3548493;40;20467;-52
2021/05/18 11:35:33;;;;;;;12.13;11.23;;;24.60;74.40;;;;;;3548410;40;20232;-51
2021/05/18 11:38:01;;;;;;;11.17;10.57;;;24.60;74.40;;;;;;3545639;40;20505;-53
2021/05/18 11:40:37;;;;;;;11.40;10.70;;;24.70;74.40;;;;;;3543456;40;21316;-51
2021/05/18 11:43:14;;;;;;;11.00;10.30;;;24.70;74.50;;;;;;3540009;40;20482;-50
2021/05/18 11:45:42;;;;;;;10.57;10.00;;;24.70;74.60;;;;;;3537485;40;20495;-52
2021/05/18 11:48:15;;;;;;;13.20;11.80;;;24.70;74.60;;;;;;3538198;40;20479;-52
2021/05/18 11:50:43;;;;;;;10.50;10.00;;;24.70;74.60;;;;;;3536440;40;20491;-52
2021/05/18 11:53:29;;;;;;;9.83;9.47;;;24.60;74.50;;;;;;3535922;40;20607;-53
2021/05/18 11:55:55;;;;;;;10.53;10.03;;;24.70;74.70;;;;;;3538954;40;20511;-50
2021/05/18 11:58:23;;;;;;;10.00;9.57;;;24.60;74.60;;;;;;3539241;40;20859;-52
2021/05/18 12:00:52;;;;;;;12.77;10.33;;;24.60;74.60;;;;;;3525957;40;20554;-51
2021/05/18 12:03:18;;;;;;;10.30;9.70;;;24.60;74.70;;;;;;3536087;40;20570;-54
2021/05/18 12:05:57;;;;;;;10.40;9.50;;;24.60;74.60;;;;;;3539173;40;20499;-51
2021/05/18 12:08:29;;;;;;;9.90;9.40;;;24.60;74.60;;;;;;3546653;40;20618;-51
2021/05/18 12:11:15;;;;;;;10.37;9.53;;;24.60;74.60;;;;;;3548379;40;20482;-51
2021/05/18 12:13:43;;;;;;;9.47;9.17;;;24.60;74.70;;;;;;3548220;40;20478;-51
2021/05/18 12:16:13;;;;;;;10.83;10.33;;;24.60;74.60;;;;;;3547242;40;20824;-50
2021/05/18 12:18:42;;;;;;;10.80;9.90;;;24.60;74.70;;;;;;3536668;40;20482;-54
2021/05/18 12:21:13;;;;;;;9.67;9.10;;;24.60;74.70;;;;;;3547111;40;20502;-54
2021/05/18 12:23:40;;;;;;;10.53;9.80;;;24.60;74.70;;;;;;3548817;40;20789;-53
2021/05/18 12:26:13;;;;;;;10.17;9.67;;;24.60;74.80;;;;;;3548071;40;20472;-51
2021/05/18 12:28:52;;;;;;;10.20;9.63;;;24.60;74.80;;;;;;3548162;40;20506;-50
2021/05/18 12:31:30;;;;;;;10.83;10.13;;;24.60;74.90;;;;;;3533921;40;20341;-48
2021/05/18 12:33:58;;;;;;;9.17;8.80;;;24.60;74.80;;;;;;3536755;40;20939;-48
2021/05/18 12:36:25;;;;;;;10.23;9.70;;;24.60;74.70;;;;;;3538804;40;20509;-50
2021/05/18 12:39:15;;;;;;;10.77;10.07;;;24.60;74.70;;;;;;3539941;40;20476;-50
2021/05/18 12:41:56;;;;;;;10.10;9.60;;;24.60;74.80;;;;;;3539342;40;20571;-53
2021/05/18 12:44:27;;;;;;;10.17;9.77;;;24.60;74.80;;;;;;3536075;40;20509;-50
2021/05/18 12:46:57;;;;;;;10.90;10.47;;;24.60;74.80;;;;;;3537364;40;20575;-49
2021/05/18 12:49:28;;;;;;;11.43;10.47;;;24.60;74.80;;;;;;3536585;40;20512;-49
2021/05/18 12:52:16;;;;;;;11.30;10.50;;;24.60;74.80;;;;;;3539731;40;20494;-51
2021/05/18 12:54:51;;;;;;;10.48;9.98;;;24.60;74.80;;;;;;3540110;40;20486;-50
2021/05/18 12:57:21;;;;;;;11.67;11.07;;;24.60;74.80;;;;;;3544306;40;21155;-50
2021/05/18 13:00:14;;;;;;;11.43;10.93;;;24.50;74.70;;;;;;3549290;40;20509;-49
2021/05/18 13:02:45;;;;;;;11.97;10.97;;;24.60;74.80;;;;;;3540608;40;20488;-49
2021/05/18 13:05:20;;;;;;;11.10;10.50;;;24.60;74.80;;;;;;3548990;40;20548;-49
2021/05/18 13:08:08;;;;;;;10.40;10.00;;;24.60;74.80;;;;;;3548767;40;20527;-55
2021/05/18 13:10:39;;;;;;;10.10;9.50;;;24.60;74.80;;;;;;3550249;40;20874;-50
2021/05/18 13:13:08;;;;;;;9.90;9.47;;;24.60;74.80;;;;;;3549825;40;20481;-50
2021/05/18 13:15:39;;;;;;;9.70;9.30;;;24.60;74.80;;;;;;3551039;40;20741;-49
2021/05/18 13:18:10;;;;;;;9.60;9.20;;;24.60;74.80;;;;;;3540895;40;20583;-49
2021/05/18 13:20:43;;;;;;;10.20;9.70;;;24.60;74.90;;;;;;3542182;40;20545;-50
2021/05/18 13:23:15;;;;;;;10.10;9.32;;;24.60;74.90;;;;;;3548359;40;20229;-49
2021/05/18 13:28:29;;;;;;;10.02;9.57;;;24.60;75.00;;;;;;3535406;40;20495;-50
2021/05/18 13:30:55;;;;;;;10.40;9.87;;;24.60;75.00;;;;;;3537614;40;20872;-51
2021/05/18 13:33:24;;;;;;;10.63;9.90;;;24.60;75.00;;;;;;3537462;40;20498;-50
2021/05/18 13:35:50;;;;;;;10.07;9.57;;;24.60;75.00;;;;;;3549553;40;20486;-52
2021/05/18 13:38:18;;;;;;;9.60;9.10;;;24.60;74.90;;;;;;3549818;40;20577;-50
2021/05/18 13:40:46;;;;;;;9.43;9.10;;;24.60;74.90;;;;;;3548837;40;20486;-49
2021/05/18 13:43:13;;;;;;;9.53;9.13;;;24.60;74.90;;;;;;3550044;40;20494;-53
2021/05/18 13:45:41;;;;;;;10.40;9.80;;;24.60;75.00;;;;;;3549860;40;20628;-52
2021/05/18 13:48:08;;;;;;;9.60;9.10;;;24.60;75.00;;;;;;3538247;40;20489;-49
2021/05/18 13:50:38;;;;;;;9.83;9.13;;;24.50;74.90;;;;;;3549347;40;20574;-51
2021/05/18 13:53:08;;;;;;;9.97;8.97;;;24.50;75.00;;;;;;3549140;40;20510;-54
2021/05/18 13:55:36;;;;;;;10.07;9.37;;;24.50;75.00;;;;;;3551613;40;20495;-51
2021/05/18 13:58:03;;;;;;;9.93;9.53;;;24.50;75.00;;;;;;3547751;40;20486;-52
2021/05/18 14:00:31;;;;;;;9.47;9.07;;;24.50;75.00;;;;;;3545857;40;20916;-53
2021/05/18 14:02:58;;;;;;;10.70;10.10;;;24.50;75.00;;;;;;3549062;40;20475;-49
2021/05/18 14:05:27;;;;;;;9.90;8.93;;;24.50;75.20;;;;;;3544490;40;20507;-51
2021/05/18 14:08:24;;;;;;;9.47;8.97;;;24.50;75.20;;;;;;3537759;40;20557;-50
2021/05/18 14:10:53;;;;;;;9.40;8.77;;;24.50;75.20;;;;;;3539057;40;20558;-51
2021/05/18 14:13:21;;;;;;;9.23;8.73;;;24.50;75.20;;;;;;3538465;40;20595;-52
2021/05/18 14:15:49;;;;;;;9.57;9.07;;;24.50;75.20;;;;;;3536116;40;20491;-50
2021/05/18 14:18:17;;;;;;;9.97;9.50;;;24.50;75.20;;;;;;3537195;40;20530;-49
2021/05/18 14:20:47;;;;;;;10.13;9.53;;;24.50;75.20;;;;;;3537921;40;20502;-53
2021/05/18 14:23:16;;;;;;;9.40;8.90;;;24.40;75.20;;;;;;3535929;40;20797;-53
2021/05/18 14:25:43;;;;;;;9.00;8.60;;;24.40;75.20;;;;;;3537243;40;20487;-50
2021/05/18 14:28:10;;;;;;;9.07;8.55;;;24.40;75.20;;;;;;3538628;40;20513;-50
2021/05/18 14:30:38;;;;;;;9.23;8.67;;;24.40;75.20;;;;;;3537695;40;20581;-50
2021/05/18 14:33:07;;;;;;;9.77;9.30;;;24.40;75.20;;;;;;3538231;40;20505;-54
2021/05/18 14:35:38;;;;;;;9.80;9.17;;;24.50;75.40;;;;;;3532670;40;20876;-59
2021/05/18 14:38:08;;;;;;;10.00;9.60;;;24.40;75.20;;;;;;3539575;40;20503;-50
2021/05/18 14:40:52;;;;;;;9.18;8.60;;;24.40;75.30;;;;;;3540471;40;21363;-50
2021/05/18 14:43:57;;;;;;;9.15;8.70;;;24.40;75.30;;;;;;3545486;40;20233;-48
2021/05/18 14:46:45;;;;;;;9.73;8.80;;;24.40;75.30;;;;;;3544659;40;20669;-48
2021/05/18 14:55:02;;;;;;;10.13;9.60;;;24.40;75.20;;;;;;3528031;40;20478;-49
2021/05/18 14:57:29;;;;;;;9.43;9.10;;;24.40;75.30;;;;;;3541956;40;20582;-50
2021/05/18 14:59:57;;;;;;;8.70;8.20;;;24.40;75.20;;;;;;3542541;40;20485;-49
2021/05/18 15:02:25;;;;;;;8.55;8.15;;;24.40;75.20;;;;;;3543949;40;20485;-49
2021/05/18 15:04:52;;;;;;;8.98;8.50;;;24.40;75.30;;;;;;3544952;40;20229;-49
2021/05/18 15:07:20;;;;;;;8.88;8.48;;;24.40;75.30;;;;;;3546983;40;20240;-49
2021/05/18 15:09:48;;;;;;;9.60;8.90;;;24.40;75.30;;;;;;3546152;40;20235;-49
2021/05/18 15:12:16;;;;;;;9.20;8.80;;;24.40;75.30;;;;;;3547954;40;20499;-51
2021/05/18 15:14:43;;;;;;;9.43;9.03;;;24.40;75.30;;;;;;3546500;40;20497;-49
2021/05/18 15:17:10;;;;;;;9.15;8.70;;;24.40;75.20;;;;;;3543680;40;20953;-49
2021/05/18 15:19:39;;;;;;;9.33;8.80;;;24.40;75.20;;;;;;3540648;40;20592;-50
2021/05/18 15:22:05;;;;;;;9.40;9.00;;;24.40;75.20;;;;;;3544166;40;20498;-50
2021/05/18 15:24:34;;;;;;;10.07;9.57;;;24.40;75.20;;;;;;3547804;40;20837;-50
2021/05/18 15:27:05;;;;;;;10.07;9.47;;;24.40;75.20;;;;;;3546193;40;20884;-49
2021/05/18 15:29:33;;;;;;;9.60;8.90;;;24.40;75.10;;;;;;3546404;40;20519;-49
2021/05/18 15:32:01;;;;;;;9.30;8.77;;;24.40;75.10;;;;;;3548133;40;20484;-49
2021/05/18 15:34:31;;;;;;;9.93;9.43;;;24.40;75.10;;;;;;3548629;40;20498;-48
2021/05/18 15:36:57;;;;;;;9.17;8.77;;;24.40;75.10;;;;;;3552731;40;20528;-48
2021/05/18 15:39:26;;;;;;;9.63;9.07;;;24.40;75.20;;;;;;3553154;40;20491;-48
2021/05/18 15:41:54;;;;;;;8.93;8.60;;;24.40;75.20;;;;;;3549982;40;20317;-48
2021/05/18 15:44:33;;;;;;;9.23;8.83;;;24.40;75.20;;;;;;3549879;40;20484;-49
2021/05/18 15:47:07;;;;;;;9.90;9.20;;;24.40;75.10;;;;;;3542270;40;20490;-52
2021/05/18 15:49:37;;;;;;;9.95;9.45;;;24.40;75.10;;;;;;3544712;40;20500;-52
2021/05/18 15:52:05;;;;;;;9.10;8.70;;;24.40;75.10;;;;;;3538263;40;20305;-49
2021/05/18 15:54:35;;;;;;;9.17;8.87;;;24.40;75.10;;;;;;3540348;40;20498;-49
2021/05/18 15:57:03;;;;;;;9.80;9.30;;;24.40;75.10;;;;;;3548050;40;20785;-49
2021/05/18 15:59:31;;;;;;;9.20;8.90;;;24.40;75.10;;;;;;3547076;40;20240;-48
2021/05/18 16:01:58;;;;;;;9.43;9.07;;;24.40;75.80;;;;;;3548717;40;20845;-48
2021/05/18 16:04:26;;;;;;;9.67;9.30;;;24.40;75.00;;;;;;3549462;40;20742;-49
2021/05/18 16:07:05;;;;;;;9.30;8.93;;;24.40;75.00;;;;;;3542116;40;20743;-48
2021/05/18 16:09:38;;;;;;;10.20;9.60;;;24.40;75.00;;;;;;3550205;40;20328;-49
2021/05/18 16:12:19;;;;;;;10.60;9.73;;;24.40;75.00;;;;;;3549715;40;20257;-50
2021/05/18 16:14:47;;;;;;;10.30;9.97;;;24.30;74.80;;;;;;3541657;40;20476;-50
2021/05/18 16:17:20;;;;;;;9.53;9.13;;;24.30;74.70;;;;;;3541074;40;20492;-49
2021/05/18 16:19:48;;;;;;;10.00;9.50;;;24.30;74.70;;;;;;3545284;40;21223;-49
2021/05/18 16:22:15;;;;;;;9.60;9.17;;;24.30;74.70;;;;;;3551370;40;20224;-50
2021/05/18 16:24:47;;;;;;;7.97;7.50;;;24.20;74.50;;;;;;3552579;40;20505;-50
2021/05/18 16:27:17;;;;;;;9.17;8.60;;;24.20;74.50;;;;;;3561755;40;20490;-48
2021/05/18 16:29:45;;;;;;;9.13;8.80;;;24.20;74.60;;;;;;3562184;40;20498;-48
2021/05/18 16:32:13;;;;;;;8.60;8.20;;;24.20;74.50;;;;;;3563143;40;20898;-48
2021/05/18 16:34:40;;;;;;;8.20;7.90;;;24.20;74.50;;;;;;3563389;40;20502;-52
2021/05/18 16:37:09;;;;;;;9.37;8.70;;;24.20;74.50;;;;;;3564418;40;20679;-49
2021/05/18 16:39:38;;;;;;;8.57;8.27;;;24.10;74.40;;;;;;3563893;40;20468;-48
2021/05/18 16:42:08;;;;;;;9.00;8.57;;;24.10;74.30;;;;;;3564576;40;20223;-48
2021/05/18 16:44:37;;;;;;;8.98;8.60;;;24.10;74.30;;;;;;3563890;40;20480;-49
2021/05/18 16:47:19;;;;;;;8.60;8.20;;;24.10;74.30;;;;;;3562655;40;20231;-50
2021/05/18 16:49:47;;;;;;;9.17;8.50;;;24.10;74.20;;;;;;3563490;40;20462;-49
2021/05/18 16:52:13;;;;;;;8.63;8.23;;;24.10;74.20;;;;;;3561964;40;20485;-49
2021/05/18 16:54:42;;;;;;;8.27;7.87;;;24.10;74.30;;;;;;3562704;40;20752;-51
2021/05/18 16:57:09;;;;;;;8.97;8.50;;;24.10;74.30;;;;;;3562976;40;20504;-53
2021/05/18 16:59:39;;;;;;;9.10;8.60;;;24.10;74.30;;;;;;3564971;40;20489;-50
2021/05/18 17:02:06;;;;;;;10.40;9.90;;;24.00;74.40;;;;;;3561561;40;20554;-51
2021/05/18 17:04:34;;;;;;;13.03;12.13;;;24.00;74.40;;;;;;3562865;40;20721;-48
2021/05/18 17:07:02;;;;;;;13.93;12.70;;;24.10;74.60;;;;;;3562904;40;21005;-49
2021/05/18 17:09:31;;;;;;;14.70;13.37;;;24.00;74.60;;;;;;3565499;40;20482;-50